Time,TemperatureF,DewpointF,PressureIn,WindDirection,WindDirectionDegrees,WindSpeedMPH,WindSpeedGustMPH,Humidity,HourlyPrecipIn,Conditions,Clouds,dailyrainin,SoftwareType,DateUTC
2013-01-18 00:01:00,52.9,40.0,29.79,West,269,3.0,12.0,61,0.00,,,0.00,weatherlink.com 1.10,2013-01-17 23:01:00,
2013-01-18 00:15:00,52.8,39.0,29.79,West,269,6.0,8.0,61,0.00,,,0.00,weatherlink.com 1.10,2013-01-17 23:15:00,
2013-01-18 00:30:00,52.5,40.0,29.80,SSE,159,0.0,6.0,63,0.00,,,0.00,weatherlink.com 1.10,2013-01-17 23:30:00,
2013-01-18 00:45:00,52.5,41.0,29.80,ESE,102,2.0,10.0,65,0.00,,,0.00,weatherlink.com 1.10,2013-01-17 23:45:00,
2013-01-18 01:00:00,52.3,41.0,29.79,SSW,207,2.0,9.0,66,0.00,,,0.00,weatherlink.com 1.10,2013-01-18 00:00:00,
2013-01-18 01:15:00,52.7,42.0,29.79,SSW,201,4.0,6.0,67,0.00,,,0.00,weatherlink.com 1.10,2013-01-18 00:15:00,
2013-01-18 01:30:00,52.4,42.0,29.79,West,276,2.0,7.0,67,0.00,,,0.00,weatherlink.com 1.10,2013-01-18 00:30:00,
2013-01-18 01:45:00,52.4,42.0,29.79,SW,225,5.0,8.0,68,0.00,,,0.00,weatherlink.com 1.10,2013-01-18 00:45:00,
2013-01-18 02:00:00,52.5,42.0,29.78,SSW,208,3.0,4.0,67,0.00,,,0.00,weatherlink.com 1.10,2013-01-18 01:00:00,
2013-01-18 02:15:00,52.3,42.0,29.79,SW,221,0.0,6.0,68,0.00,,,0.00,weatherlink.com 1.10,2013-01-18 01:15:00,
2013-01-18 02:30:00,52.7,42.0,29.78,SSW,200,6.0,10.0,68,0.00,,,0.00,weatherlink.com 1.10,2013-01-18 01:30:00,
2013-01-18 02:45:00,52.7,42.0,29.78,WSW,249,2.0,4.0,68,0.00,,,0.00,weatherlink.com 1.10,2013-01-18 01:45:00,
2013-01-18 03:00:00,52.7,42.0,29.78,West,263,3.0,6.0,68,0.00,,,0.00,weatherlink.com 1.10,2013-01-18 02:00:00,
2013-01-18 03:15:00,52.7,43.0,29.77,WSW,247,1.0,7.0,69,0.00,,,0.00,weatherlink.com 1.10,2013-01-18 02:15:00,
2013-01-18 03:30:00,52.8,43.0,29.77,WSW,248,5.0,6.0,69,0.00,,,0.00,weatherlink.com 1.10,2013-01-18 02:30:00,
2013-01-18 03:45:00,53.2,43.0,29.77,West,271,2.0,6.0,68,0.00,,,0.00,weatherlink.com 1.10,2013-01-18 02:45:00,
2013-01-18 04:00:00,53.4,43.0,29.77,WSW,245,3.0,7.0,68,0.00,,,0.00,weatherlink.com 1.10,2013-01-18 03:00:00,
2013-01-18 04:15:00,53.6,43.0,29.77,WSW,255,4.0,9.0,67,0.00,,,0.00,weatherlink.com 1.10,2013-01-18 03:15:00,
2013-01-18 04:31:00,53.7,42.0,29.76,WNW,293,3.0,9.0,66,0.00,,,0.00,weatherlink.com 1.10,2013-01-18 03:31:00,
2013-01-18 04:46:00,53.4,42.0,29.76,West,275,5.0,11.0,66,0.00,,,0.00,weatherlink.com 1.10,2013-01-18 03:46:00,
2013-01-18 05:01:00,53.4,42.0,29.74,WNW,298,10.0,15.0,65,0.00,,,0.00,weatherlink.com 1.10,2013-01-18 04:01:00,
2013-01-18 05:16:00,53.2,42.0,29.74,WNW,301,10.0,14.0,66,0.00,,,0.00,weatherlink.com 1.10,2013-01-18 04:16:00,
2013-01-18 05:31:00,53.2,42.0,29.74,WNW,285,6.0,13.0,67,0.00,,,0.00,weatherlink.com 1.10,2013-01-18 04:31:00,
2013-01-18 05:46:00,53.0,43.0,29.74,West,280,2.0,14.0,68,0.00,,,0.00,weatherlink.com 1.10,2013-01-18 04:46:00,
2013-01-18 06:01:00,52.6,43.0,29.73,NW,307,9.0,10.0,70,0.00,,,0.00,weatherlink.com 1.10,2013-01-18 05:01:00,
2013-01-18 06:16:00,52.7,43.0,29.74,WSW,242,2.0,10.0,70,0.00,,,0.00,weatherlink.com 1.10,2013-01-18 05:16:00,
2013-01-18 06:31:00,51.4,43.0,29.73,WNW,290,2.0,5.0,74,0.00,,,0.00,weatherlink.com 1.10,2013-01-18 05:31:00,
2013-01-18 06:46:00,50.4,43.0,29.74,SSW,210,2.0,5.0,75,0.00,,,0.00,weatherlink.com 1.10,2013-01-18 05:46:00,
2013-01-18 07:01:00,50.1,44.0,29.74,SW,223,2.0,6.0,78,0.00,,,0.00,weatherlink.com 1.10,2013-01-18 06:01:00,
2013-01-18 07:16:00,50.1,44.0,29.75,SW,236,3.0,5.0,78,0.00,,,0.00,weatherlink.com 1.10,2013-01-18 06:16:00,
2013-01-18 07:31:00,50.5,44.0,29.76,SW,233,1.0,5.0,78,0.00,,,0.00,weatherlink.com 1.10,2013-01-18 06:31:00,
2013-01-18 07:46:00,51.1,44.0,29.75,WSW,246,3.0,4.0,78,0.00,,,0.00,weatherlink.com 1.10,2013-01-18 06:46:00,
2013-01-18 08:01:00,51.1,44.0,29.75,WSW,252,2.0,3.0,78,0.00,,,0.00,weatherlink.com 1.10,2013-01-18 07:01:00,
2013-01-18 08:16:00,52.1,46.0,29.75,WNW,292,7.0,8.0,79,0.00,,,0.00,weatherlink.com 1.10,2013-01-18 07:16:00,
2013-01-18 08:31:00,52.2,46.0,29.74,WNW,292,3.0,6.0,79,0.00,,,0.00,weatherlink.com 1.10,2013-01-18 07:31:00,
2013-01-18 08:46:00,52.1,46.0,29.73,WSW,253,0.0,3.0,79,0.00,,,0.00,weatherlink.com 1.10,2013-01-18 07:46:00,
2013-01-18 09:01:00,52.2,46.0,29.73,WSW,257,0.0,2.0,80,0.00,,,0.00,weatherlink.com 1.10,2013-01-18 08:01:00,
2013-01-18 09:16:00,52.2,46.0,29.73,SSW,207,2.0,3.0,80,0.00,,,0.00,weatherlink.com 1.10,2013-01-18 08:16:00,
2013-01-18 09:31:00,51.4,46.0,29.74,SSW,212,2.0,3.0,82,0.00,,,0.00,weatherlink.com 1.10,2013-01-18 08:31:00,
2013-01-18 09:46:00,51.3,46.0,29.72,South,172,2.0,5.0,82,0.00,,,0.00,weatherlink.com 1.10,2013-01-18 08:46:00,
2013-01-18 10:01:00,51.4,46.0,29.72,SSW,208,2.0,4.0,82,0.00,,,0.00,weatherlink.com 1.10,2013-01-18 09:01:00,
2013-01-18 10:16:00,52.7,47.0,29.72,SW,220,2.0,5.0,81,0.00,,,0.00,weatherlink.com 1.10,2013-01-18 09:16:00,
2013-01-18 10:31:00,53.9,47.0,29.72,SW,214,2.0,5.0,78,0.00,,,0.00,weatherlink.com 1.10,2013-01-18 09:31:00,
2013-01-18 10:46:00,54.2,47.0,29.72,SSW,194,3.0,6.0,78,0.00,,,0.00,weatherlink.com 1.10,2013-01-18 09:46:00,
2013-01-18 11:01:00,54.9,49.0,29.72,West,260,3.0,5.0,79,0.00,,,0.00,weatherlink.com 1.10,2013-01-18 10:01:00,
2013-01-18 11:16:00,55.9,50.0,29.71,SW,214,5.0,-999.0,79,-99.99,,,0.00,weatherlink.com 1.10,2013-01-18 10:16:00,
2013-01-18 11:31:00,55.7,50.0,29.72,SW,235,4.0,8.0,81,0.00,,,0.00,weatherlink.com 1.10,2013-01-18 10:31:00,
2013-01-18 11:46:00,55.8,51.0,29.70,SSW,211,3.0,9.0,83,0.00,,,0.00,weatherlink.com 1.10,2013-01-18 10:46:00,
2013-01-18 12:01:00,56.3,52.0,29.70,SW,225,6.0,8.0,84,0.00,,,0.00,weatherlink.com 1.10,2013-01-18 11:01:00,
2013-01-18 12:16:00,56.7,52.0,29.69,SW,227,5.0,8.0,84,0.00,,,0.00,weatherlink.com 1.10,2013-01-18 11:16:00,
2013-01-18 12:31:00,57.4,52.0,29.69,SSW,200,4.0,5.0,83,0.00,,,0.00,weatherlink.com 1.10,2013-01-18 11:31:00,
2013-01-18 12:47:00,58.8,53.0,29.68,SW,215,4.0,7.0,81,0.00,,,0.00,weatherlink.com 1.10,2013-01-18 11:47:00,
2013-01-18 13:02:00,59.2,53.0,29.67,SSW,208,2.0,7.0,81,0.00,,,0.00,weatherlink.com 1.10,2013-01-18 12:02:00,
2013-01-18 13:17:00,59.7,54.0,29.67,SSE,155,3.0,4.0,82,0.00,,,0.00,weatherlink.com 1.10,2013-01-18 12:17:00,
2013-01-18 13:32:00,60.6,55.0,29.66,SSW,196,1.0,4.0,81,0.00,,,0.00,weatherlink.com 1.10,2013-01-18 12:32:00,
2013-01-18 13:47:00,61.1,54.0,29.66,SW,236,2.0,5.0,76,0.00,,,0.00,weatherlink.com 1.10,2013-01-18 12:47:00,
2013-01-18 14:02:00,61.9,53.0,29.66,NW,319,5.0,8.0,72,0.00,,,0.00,weatherlink.com 1.10,2013-01-18 13:02:00,
2013-01-18 14:17:00,62.2,52.0,29.64,WNW,295,8.0,14.0,70,0.00,,,0.00,weatherlink.com 1.10,2013-01-18 13:17:00,
2013-01-18 14:32:00,61.8,52.0,29.64,NNW,328,8.0,15.0,71,0.00,,,0.00,weatherlink.com 1.10,2013-01-18 13:32:00,
2013-01-18 14:47:00,62.1,52.0,29.64,West,259,4.0,14.0,70,0.00,,,0.00,weatherlink.com 1.10,2013-01-18 13:47:00,
2013-01-18 15:02:00,62.2,51.0,29.64,WNW,299,6.0,15.0,68,0.00,,,0.00,weatherlink.com 1.10,2013-01-18 14:02:00,
2013-01-18 15:17:00,61.9,52.0,29.63,West,278,5.0,14.0,69,0.00,,,0.00,weatherlink.com 1.10,2013-01-18 14:17:00,
2013-01-18 15:32:00,61.6,52.0,29.63,WNW,298,7.0,10.0,70,0.00,,,0.00,weatherlink.com 1.10,2013-01-18 14:32:00,
2013-01-18 15:47:00,61.3,52.0,29.62,WNW,295,6.0,10.0,71,0.00,,,0.00,weatherlink.com 1.10,2013-01-18 14:47:00,
2013-01-18 16:02:00,61.2,52.0,29.62,NW,307,3.0,6.0,72,0.00,,,0.00,weatherlink.com 1.10,2013-01-18 15:02:00,
2013-01-18 16:17:00,61.1,52.0,29.62,WNW,293,4.0,8.0,72,0.00,,,0.00,weatherlink.com 1.10,2013-01-18 15:17:00,
2013-01-18 16:32:00,61.0,52.0,29.61,WNW,290,3.0,7.0,72,0.00,,,0.00,weatherlink.com 1.10,2013-01-18 15:32:00,
2013-01-18 16:47:00,60.8,52.0,29.62,South,172,1.0,4.0,74,0.00,,,0.00,weatherlink.com 1.10,2013-01-18 15:47:00,
2013-01-18 17:02:00,60.6,53.0,29.61,SSW,211,1.0,3.0,76,0.00,,,0.00,weatherlink.com 1.10,2013-01-18 16:02:00,
2013-01-18 17:17:00,60.2,53.0,29.61,South,172,1.0,3.0,77,0.00,,,0.00,weatherlink.com 1.10,2013-01-18 16:17:00,
2013-01-18 17:32:00,59.8,53.0,29.61,WSW,246,0.0,3.0,78,0.00,,,0.00,weatherlink.com 1.10,2013-01-18 16:32:00,
2013-01-18 17:47:00,59.6,53.0,29.61,SSW,203,0.0,3.0,78,0.00,,,0.00,weatherlink.com 1.10,2013-01-18 16:47:00,
2013-01-18 18:02:00,59.2,53.0,29.61,SSE,165,2.0,2.0,79,0.00,,,0.00,weatherlink.com 1.10,2013-01-18 17:02:00,
2013-01-18 18:17:00,58.4,53.0,29.61,SE,127,3.0,5.0,83,0.00,,,0.00,weatherlink.com 1.10,2013-01-18 17:17:00,
2013-01-18 18:32:00,57.5,53.0,29.60,SSE,162,3.0,6.0,86,0.00,,,0.00,weatherlink.com 1.10,2013-01-18 17:32:00,
2013-01-18 18:47:00,57.1,54.0,29.61,SSW,197,6.0,9.0,88,0.00,,,0.00,weatherlink.com 1.10,2013-01-18 17:47:00,
2013-01-18 19:02:00,57.1,54.0,29.60,SE,145,2.0,6.0,88,0.00,,,0.00,weatherlink.com 1.10,2013-01-18 18:02:00,
2013-01-18 19:17:00,57.2,54.0,29.60,SW,231,4.0,11.0,88,0.00,,,0.00,weatherlink.com 1.10,2013-01-18 18:17:00,
2013-01-18 19:47:00,57.3,54.0,29.59,SSW,193,4.0,7.0,88,0.00,,,0.00,weatherlink.com 1.10,2013-01-18 18:47:00,
2013-01-18 20:02:00,57.4,54.0,29.59,South,189,6.0,9.0,88,0.00,,,0.00,weatherlink.com 1.10,2013-01-18 19:02:00,
2013-01-18 20:17:00,57.5,54.0,29.59,SSW,212,4.0,12.0,88,0.00,,,0.00,weatherlink.com 1.10,2013-01-18 19:17:00,
2013-01-18 20:32:00,57.6,54.0,29.59,South,186,4.0,9.0,88,0.00,,,0.00,weatherlink.com 1.10,2013-01-18 19:32:00,
2013-01-18 20:47:00,57.3,54.0,29.59,SSW,196,7.0,9.0,89,0.00,,,0.00,weatherlink.com 1.10,2013-01-18 19:47:00,
2013-01-18 21:02:00,57.1,54.0,29.58,SSE,159,4.0,12.0,89,0.00,,,0.00,weatherlink.com 1.10,2013-01-18 20:02:00,
2013-01-18 21:17:00,57.1,54.0,29.58,SSW,211,4.0,8.0,90,0.00,,,0.00,weatherlink.com 1.10,2013-01-18 20:17:00,
2013-01-18 21:32:00,57.2,54.0,29.57,SE,146,3.0,9.0,89,0.00,,,0.00,weatherlink.com 1.10,2013-01-18 20:32:00,
2013-01-18 21:47:00,57.1,54.0,29.57,SSW,193,3.0,9.0,89,0.00,,,0.00,weatherlink.com 1.10,2013-01-18 20:47:00,
2013-01-18 22:02:00,56.8,54.0,29.56,SE,138,4.0,11.0,90,0.00,,,0.00,weatherlink.com 1.10,2013-01-18 21:02:00,
2013-01-18 22:17:00,56.8,54.0,29.55,South,189,5.0,12.0,90,0.00,,,0.00,weatherlink.com 1.10,2013-01-18 21:17:00,
2013-01-18 22:33:00,57.0,54.0,29.55,SSE,158,4.0,12.0,89,0.00,,,0.00,weatherlink.com 1.10,2013-01-18 21:33:00,
2013-01-18 22:48:00,57.2,52.0,29.54,SSW,207,8.0,18.0,84,0.00,,,0.00,weatherlink.com 1.10,2013-01-18 21:48:00,
2013-01-18 23:03:00,59.9,52.0,29.55,West,264,9.0,20.0,74,0.00,,,0.00,weatherlink.com 1.10,2013-01-18 22:03:00,
2013-01-18 23:18:00,60.3,51.0,29.54,West,267,5.0,19.0,72,0.00,,,0.00,weatherlink.com 1.10,2013-01-18 22:18:00,
2013-01-18 23:33:00,60.6,51.0,29.53,SSW,198,9.0,20.0,71,0.00,,,0.00,weatherlink.com 1.10,2013-01-18 22:33:00,
2013-01-18 23:48:00,60.4,51.0,29.53,SSW,198,13.0,19.0,71,0.00,,,0.00,weatherlink.com 1.10,2013-01-18 22:48:00,